x

Tanner Bank - 121nm West Of San Diego, Ca (46047) Wave Buoy

6:50 - Sat 25th Jun 2016 All times are PDT. -7 hours from GMT.

  • Sig Wave height 7.9ft
  • Swell Direction
  • Peak Period 16s
  • Average Period 7s
  • Wind
    20mph, 22mph gusts
  • Sea Temp 60°f
  • Luft Temp 59°f
  • Sea Pressure 1011.4mb
  • Tanner Bank - 121nm West Of San Diego, Ca
  • Tanner Bank - 121nm West Of San Diego, Ca

More Historic Weather Station data

Upgrade to MSW Pro to gain access to the past 30 days of data for over 8000 Wavebouys and Weather Stations around the globe.

Join Pro

Comparision Forecast

View Surf forecast
   
Sa 06/25 6:50 8ft 16s 7s 20 22 mph 1011.4mb 60f 59f
5:50 8ft 16s 7s 18 22 mph 1011.2mb 60f 59f
4:50 9ft 16s 7s 20 25 mph 1010.9mb 60f 60f
3:50 9ft 17s 7s 22 27 mph 1010.7mb 60f 60f
2:50 9ft 17s 8s 20 27 mph 1011mb 60f 61f
1:50 8.5ft 8s 7s 20 22 mph 1011.3mb 60f 61f
12:50 9ft 17s 7s 20 25 mph 1011.8mb 60f 61f
Fr 06/24 11:50 8.5ft 17s 7s 20 25 mph 1012.4mb 60f 62f
10:50 9ft 17s 7s 20 27 mph 1012.5mb 60f 61f
9:50 9ft 17s 7s 20 22 mph 1012.3mb 60f 61f
8:50 9ft 17s 7s 18 20 mph 1012.4mb 60f 61f
7:50 8ft 8s 7s 18 20 mph 1012.3mb 60f 61f
6:50 9ft 17s 7s 18 22 mph 1012.2mb 60f 62f
5:50 9ft 17s 7s 16 20 mph 1012.6mb 60f 61f
4:50 9ft 8s 7s 18 22 mph 1013.4mb 60f 61f
3:50 9ft 17s 7s 18 20 mph 1013.7mb 60f 61f
2:50 9ft 8s 7s 18 20 mph 1014.3mb 60f 61f
1:50 9ft 17s 8s 13 18 mph 1014.8mb 60f 60f
12:50 9ft 9s 8s 13 18 mph 1014.8mb 60f 60f
11:50 9ft 17s 8s 16 18 mph 1014.8mb 59f 60f
10:50 8.5ft 17s 7s 13 18 mph 1015mb 59f 60f
9:50 8ft 17s 7s 16 20 mph 1015.1mb 59f 59f
8:50 8.5ft 17s 7s 16 20 mph 1014.6mb 59f 60f
7:50 7.5ft 16s 7s 16 18 mph 1014.2mb 59f 60f
6:50 8ft 8s 7s 18 20 mph 1013.9mb 59f 60f
5:50 8ft 16s 7s 18 20 mph 1013.6mb 59f 60f
4:50 8.5ft 17s 7s 18 22 mph 1013.1mb 60f 60f
3:50 8.5ft 17s 7s 18 22 mph 1012.9mb 60f 61f
2:50 8ft 17s 7s 20 25 mph 1012.9mb 60f 61f
1:50 7.5ft 16s 7s 22 25 mph 1013.2mb 60f 62f
12:50 7ft 17s 7s 18 22 mph 1013.7mb 60f 62f
Do 06/23 11:50 7ft 17s 8s 13 18 mph 1014.1mb 60f 62f
10:50 7ft 17s 8s 11 16 mph 1014.1mb 60f 62f
9:50 7ft 16s 8s 11 13 mph 1013.9mb 60f 62f
8:50 7ft 16s 8s 11 13 mph 1013.8mb 60f 61f
7:50 7.5ft 17s 9s 11 13 mph 1013.7mb 61f 61f
6:50 7ft 17s 8s 13 16 mph 1013.8mb 61f 61f
5:50 6.5ft 17s 7s 13 16 mph 1013.8mb 61f 60f
4:50 6.5ft 17s 8s 13 16 mph 1014.3mb 61f 60f
3:50 7ft 17s 8s 13 16 mph 1014.7mb 61f 60f
2:50 7ft 17s 8s 13 16 mph 1015mb 61f 60f
1:50 7.5ft 17s 8s 13 16 mph 1015.1mb 62f 60f
12:50 7.5ft 17s 8s 9 11 mph 1015.6mb 61f 60f
11:50 6ft 17s 8s 9 11 mph 1015.9mb 61f 59f
10:50 7ft 17s 8s 9 13 mph 1015.8mb 61f 58f
9:50 7ft 17s 8s 13 16 mph 1015.2mb 60f 58f
8:50 7ft 17s 7s 13 18 mph 1015mb 60f 59f
7:50 7.5ft 17s 8s 13 16 mph 1015mb 61f 59f
6:50 7.5ft 17s 8s 13 18 mph 1014.5mb 61f 59f
5:50 7ft 17s 7s 13 18 mph 1014mb 61f 59f
4:50 7.5ft 17s 8s 16 20 mph 1013.9mb 61f 59f
3:50 7ft 17s 7s 13 18 mph 1014mb 61f 59f
2:50 7ft 17s 7s 13 18 mph 1014.2mb 61f 59f
12:50 7.5ft 17s 8s 13 18 mph 1014.4mb 62f 59f
Mi 06/22 11:50 7.5ft 19s 8s 13 16 mph 1014.7mb 62f 59f
10:50 7ft 19s 7s 13 18 mph 1014.8mb 62f 59f
9:50 6ft 8s 7s 13 16 mph 1014.4mb 62f 58f
8:50 7ft 19s 7s 16 20 mph 1013.9mb 62f 58f
7:50 6.5ft 19s 8s 16 18 mph 1013.5mb 62f 58f
6:50 6ft 19s 8s 11 16 mph 1013.5mb 62f 60f
5:50 6ft 19s 8s 9 13 mph 1013.7mb 63f 60f
4:50 6ft 19s 8s 9 11 mph 1014mb 63f 60f
3:50 6.5ft 8s 7s 7 9 mph 1014.2mb 63f 60f
2:50 7ft 19s 8s 7 9 mph 1014.6mb 63f 60f
1:50 6ft 9s 8s 7 9 mph 1014.5mb 63f 60f
12:50 6ft 9s 8s 7 9 mph 1014.7mb 63f 59f
11:50 6ft 10s 8s 4 7 mph 1014.8mb 63f 59f
10:50 6ft 9s 8s 4 7 mph 1014.8mb 63f 59f
9:50 6ft 19s 8s 4 9 mph 1014.3mb 63f 59f
8:50 5.5ft 9s 7s 9 13 mph 1014.1mb 63f 59f
7:50 5.5ft 10s 8s 4 7 mph 1014mb 62f 59f
6:50 6ft 19s 8s 2 4 mph 1014mb 62f 58f
5:50 6ft 9s 7s 7 9 mph 1013.4mb 62f 59f
4:50 6ft 9s 7s 2 4 mph 1013.2mb 62f 60f
3:50 6ft 8s 7s 2 4 mph 1013.1mb 62f 60f
2:50 6ft 9s 7s 2 4 mph 1013.2mb 62f 60f
1:50 6ft 9s 7s 4 7 mph 1013.6mb 62f 60f
12:50 6ft 9s 7s 4
mph
1013.7mb 62f 61f
Di 06/21 11:50 5.5ft 8s 7s 4 7 mph 1014mb 62f 61f
10:50 6ft 9s 7s 7 9 mph 1014.1mb 62f 61f
9:50 6ft 9s 7s 4 7 mph 1014.1mb 61f 61f
8:50 5.5ft 9s 7s 2 4 mph 1013.6mb 61f 61f
7:50 6ft 8s 7s 2 4 mph 1013.3mb 61f 61f
6:50 6.5ft 9s 7s 2 4 mph 1013.3mb 61f 61f
5:50 6.5ft 9s 7s 4 7 mph 1012.9mb 61f 62f
4:50 6.5ft 9s 7s 7 9 mph 1013.1mb 61f 61f
3:50 6ft 9s 7s 9 13 mph 1013.2mb 62f 61f
2:50 6.5ft 9s 7s 9 11 mph 1013.4mb 62f 62f